createdAt,value
2019-04-05T00:01:20.641Z,99.90
2019-04-05T00:03:49.086Z,99.90
2019-04-05T00:06:17.489Z,99.90
2019-04-05T00:08:45.941Z,99.90
2019-04-05T00:11:14.357Z,99.90
2019-04-05T00:13:42.826Z,99.90
2019-04-05T00:16:11.326Z,99.90
2019-04-05T00:18:39.744Z,99.90
2019-04-05T00:21:08.174Z,99.90
2019-04-05T00:23:36.581Z,99.90
2019-04-05T00:26:05.000Z,99.90
2019-04-05T00:28:33.460Z,99.90
2019-04-05T00:31:01.854Z,99.90
2019-04-05T00:33:30.259Z,99.90
2019-04-05T00:35:58.680Z,99.90
2019-04-05T00:38:27.085Z,99.90
2019-04-05T00:40:55.512Z,99.90
2019-04-05T00:43:24.201Z,99.90
2019-04-05T00:45:52.616Z,99.90
2019-04-05T00:48:21.029Z,99.90
2019-04-05T00:50:49.444Z,99.90
2019-04-05T00:53:17.854Z,99.90
2019-04-05T00:55:46.261Z,99.90
2019-04-05T00:58:14.988Z,99.90
2019-04-05T01:00:43.656Z,99.90
2019-04-05T01:03:13.325Z,99.90
2019-04-05T01:05:42.345Z,99.90
2019-04-05T01:08:10.767Z,99.90
2019-04-05T01:10:39.166Z,99.90
2019-04-05T01:13:07.602Z,99.90
2019-04-05T01:15:41.204Z,99.90
2019-04-05T01:18:06.223Z,99.90
2019-04-05T01:20:37.242Z,99.90
2019-04-05T01:23:05.654Z,99.90
2019-04-05T01:25:35.510Z,99.90
2019-04-05T01:28:03.985Z,99.90
2019-04-05T01:30:33.398Z,99.90
2019-04-05T01:33:02.052Z,99.90
2019-04-05T01:35:30.453Z,99.90
2019-04-05T01:37:59.339Z,99.90
2019-04-05T01:40:30.282Z,99.90
2019-04-05T01:42:58.962Z,99.90
2019-04-05T01:45:27.387Z,99.90
2019-04-05T01:47:55.858Z,99.90
2019-04-05T01:50:24.267Z,99.90
2019-04-05T01:52:53.225Z,99.90
2019-04-05T01:55:21.625Z,99.90
2019-04-05T01:57:50.022Z,99.90
2019-04-05T02:00:19.192Z,99.90
2019-04-05T02:02:47.731Z,99.90
2019-04-05T02:05:17.068Z,99.90
2019-04-05T02:07:45.652Z,99.90
2019-04-05T02:10:14.480Z,99.90
2019-04-05T02:12:42.884Z,99.90
2019-04-05T02:15:14.390Z,99.90
2019-04-05T02:17:42.804Z,99.90
2019-04-05T02:20:11.648Z,99.90
2019-04-05T02:22:40.073Z,99.90
2019-04-05T02:25:08.854Z,99.90
2019-04-05T02:27:37.257Z,99.90
2019-04-05T02:30:07.367Z,99.90
2019-04-05T02:32:35.847Z,99.90
2019-04-05T02:35:05.984Z,99.90
2019-04-05T02:37:34.408Z,99.90
2019-04-05T02:40:03.382Z,99.90
2019-04-05T02:42:33.026Z,99.90
2019-04-05T02:45:01.537Z,99.90
2019-04-05T02:47:30.307Z,99.90
2019-04-05T02:49:59.733Z,99.90
2019-04-05T02:52:30.154Z,99.90
2019-04-05T02:54:59.896Z,99.90
2019-04-05T02:57:29.064Z,99.90
2019-04-05T02:59:58.631Z,99.90
2019-04-05T03:02:27.870Z,99.90
2019-04-05T03:04:56.453Z,99.90
2019-04-05T03:07:26.873Z,99.90
2019-04-05T03:09:57.418Z,99.90
2019-04-05T03:12:26.177Z,99.90
2019-04-05T03:14:55.433Z,99.90
2019-04-05T03:17:24.684Z,99.90
2019-04-05T03:19:56.158Z,99.90
2019-04-05T03:22:25.898Z,99.90
2019-04-05T03:24:54.973Z,99.90
2019-04-05T03:27:26.606Z,99.90
2019-04-05T03:29:55.550Z,99.90
2019-04-05T03:32:25.029Z,99.90
2019-04-05T03:34:53.502Z,99.90
2019-04-05T03:37:22.234Z,99.90
2019-04-05T03:39:51.037Z,99.90
2019-04-05T03:42:20.086Z,99.90
2019-04-05T03:44:48.644Z,99.90
2019-04-05T03:47:17.512Z,99.90
2019-04-05T03:49:46.090Z,99.90
2019-04-05T03:52:14.965Z,99.90
2019-04-05T03:54:43.677Z,99.90
2019-04-05T03:57:12.255Z,99.90
2019-04-05T03:59:41.014Z,99.90
2019-04-05T04:02:09.591Z,99.90
2019-04-05T04:04:38.064Z,99.90
2019-04-05T04:07:06.662Z,99.90
2019-04-05T04:09:35.064Z,99.90
2019-04-05T04:12:03.477Z,99.90
2019-04-05T04:14:31.976Z,99.90
2019-04-05T04:17:11.928Z,99.90
2019-04-05T04:19:30.987Z,99.90
2019-04-05T04:22:05.481Z,99.90
2019-04-05T04:24:34.117Z,99.90
2019-04-05T04:27:02.666Z,99.90
2019-04-05T04:29:31.162Z,99.90
2019-04-05T04:31:59.730Z,99.90
2019-04-05T04:34:28.400Z,99.90
2019-04-05T04:36:57.011Z,99.90
2019-04-05T04:39:25.694Z,99.90
2019-04-05T04:41:54.106Z,99.90
2019-04-05T04:44:22.777Z,99.90
2019-04-05T04:46:51.255Z,99.90
2019-04-05T04:49:20.027Z,99.90
2019-04-05T04:51:49.082Z,99.90
2019-04-05T04:54:17.760Z,99.90
2019-04-05T04:56:46.193Z,99.90
2019-04-05T04:59:14.675Z,99.90
2019-04-05T05:01:43.098Z,99.90
2019-04-05T05:04:11.752Z,99.90
2019-04-05T05:06:40.344Z,99.90
2019-04-05T05:09:08.818Z,99.90
2019-04-05T05:11:37.856Z,99.90
2019-04-05T05:14:06.720Z,99.90
2019-04-05T05:16:35.287Z,99.90
2019-04-05T05:19:04.172Z,99.90
2019-04-05T05:21:32.813Z,99.90
2019-04-05T05:24:01.213Z,99.90
2019-04-05T05:26:30.285Z,99.90
2019-04-05T05:28:59.318Z,99.90
2019-04-05T05:31:27.967Z,99.90
2019-04-05T05:33:56.389Z,99.90
2019-04-05T05:36:24.867Z,99.90
2019-04-05T05:38:53.276Z,99.90
2019-04-05T05:41:21.738Z,99.90
2019-04-05T05:43:50.137Z,99.90
2019-04-05T05:46:18.565Z,99.90
2019-04-05T05:48:46.992Z,99.90
2019-04-05T05:51:15.388Z,99.90
2019-04-05T05:53:44.167Z,99.90
2019-04-05T05:56:12.597Z,99.90
2019-04-05T05:58:41.034Z,99.90
2019-04-05T06:01:09.433Z,99.90
2019-04-05T06:03:37.928Z,99.90
2019-04-05T06:06:06.334Z,99.90
2019-04-05T06:08:34.766Z,99.90
2019-04-05T06:11:03.323Z,99.90
2019-04-05T06:13:31.717Z,99.90
2019-04-05T06:16:00.160Z,99.90
2019-04-05T06:18:28.550Z,99.90
2019-04-05T06:20:56.951Z,99.90
2019-04-05T06:23:33.621Z,99.90
2019-04-05T06:25:55.518Z,99.90
2019-04-05T06:28:23.909Z,99.90
2019-04-05T06:30:52.348Z,99.90
2019-04-05T06:33:30.891Z,99.90
2019-04-05T06:35:50.943Z,99.90
2019-04-05T06:38:19.379Z,99.90
2019-04-05T06:40:47.798Z,99.90
2019-04-05T06:43:16.185Z,99.90
2019-04-05T06:45:44.652Z,99.90
2019-04-05T06:48:19.572Z,99.90
2019-04-05T06:50:43.240Z,99.90
2019-04-05T06:53:11.702Z,99.90
2019-04-05T06:55:40.089Z,99.90
2019-04-05T06:58:10.347Z,99.90
2019-04-05T07:00:38.789Z,99.90
2019-04-05T07:03:07.319Z,99.90
2019-04-05T07:05:35.754Z,99.90
2019-04-05T07:08:04.241Z,99.90
2019-04-05T07:10:32.625Z,99.90
2019-04-05T07:13:01.268Z,99.90
2019-04-05T07:15:29.981Z,99.90
2019-04-05T07:17:58.372Z,99.90
2019-04-05T07:20:26.826Z,99.90
2019-04-05T07:22:55.309Z,99.90
2019-04-05T07:25:23.712Z,99.90
2019-04-05T07:27:52.130Z,99.90
2019-04-05T07:30:20.773Z,99.90
2019-04-05T07:32:49.166Z,99.90
2019-04-05T07:35:17.604Z,99.90
2019-04-05T07:37:46.000Z,99.90
2019-04-05T07:40:14.839Z,99.90
2019-04-05T07:42:43.269Z,99.90
2019-04-05T07:45:12.512Z,99.90
2019-04-05T07:47:40.900Z,99.90
2019-04-05T07:50:09.888Z,99.90
2019-04-05T07:52:38.284Z,99.90
2019-04-05T07:55:07.722Z,99.90
2019-04-05T07:57:36.137Z,99.90
2019-04-05T08:00:09.923Z,99.90
2019-04-05T08:02:38.318Z,99.90
2019-04-05T08:05:07.688Z,99.90
2019-04-05T08:07:39.166Z,99.90
2019-04-05T08:10:08.547Z,99.90
2019-04-05T08:12:37.589Z,99.90
2019-04-05T08:15:06.543Z,99.90
2019-04-05T08:17:34.943Z,99.90
2019-04-05T08:20:04.361Z,98.80
2019-04-05T08:22:32.808Z,98.10
2019-04-05T08:25:01.200Z,96.80
2019-04-05T08:27:29.643Z,95.80
2019-04-05T08:29:58.076Z,95.30
2019-04-05T08:32:26.476Z,96.00
2019-04-05T08:34:54.877Z,96.10
2019-04-05T08:37:23.579Z,95.40
2019-04-05T08:39:51.986Z,95.30
2019-04-05T08:42:20.402Z,95.20
2019-04-05T08:44:48.955Z,93.90
2019-04-05T08:47:17.380Z,92.80
2019-04-05T08:49:45.784Z,93.60
2019-04-05T08:52:14.216Z,92.00
2019-04-05T08:54:42.627Z,92.50
2019-04-05T08:57:11.030Z,94.30
2019-04-05T08:59:39.453Z,94.20
2019-04-05T09:02:07.852Z,92.70
2019-04-05T09:04:36.249Z,93.10
2019-04-05T09:07:05.170Z,93.00
2019-04-05T09:09:33.634Z,92.30
2019-04-05T09:12:02.020Z,92.50
2019-04-05T09:14:30.456Z,92.30
2019-04-05T09:16:58.878Z,92.60
2019-04-05T09:19:27.276Z,92.00
2019-04-05T09:21:55.708Z,93.10
2019-04-05T09:24:24.125Z,93.20
2019-04-05T09:26:54.315Z,93.00
2019-04-05T09:29:22.681Z,93.00
2019-04-05T09:31:51.100Z,92.90
2019-04-05T09:34:19.536Z,92.80
2019-04-05T09:36:47.964Z,92.30
2019-04-05T09:39:16.388Z,91.90
2019-04-05T09:41:44.892Z,91.50
2019-04-05T09:44:13.301Z,91.20
2019-04-05T09:46:47.939Z,91.30
2019-04-05T09:49:11.998Z,91.00
2019-04-05T09:51:40.419Z,91.50
2019-04-05T09:54:08.843Z,90.40
2019-04-05T09:56:37.243Z,90.20
2019-04-05T09:59:05.749Z,90.60
2019-04-05T10:01:34.167Z,90.90
2019-04-05T10:04:02.557Z,90.70
2019-04-05T10:06:30.984Z,91.00
2019-04-05T10:08:59.469Z,91.10
2019-04-05T10:11:27.925Z,91.10
2019-04-05T10:13:56.352Z,91.30
2019-04-05T10:16:24.791Z,91.00
2019-04-05T10:18:53.398Z,91.20
2019-04-05T10:21:21.804Z,90.50
2019-04-05T10:23:50.196Z,90.40
2019-04-05T10:26:18.625Z,90.00
2019-04-05T10:28:47.029Z,89.60
2019-04-05T10:31:15.448Z,88.80
2019-04-05T10:33:43.881Z,88.90
2019-04-05T10:36:12.285Z,88.70
2019-04-05T10:38:40.679Z,87.00
2019-04-05T10:41:09.128Z,85.10
2019-04-05T10:43:37.590Z,85.10
2019-04-05T10:46:05.999Z,86.10
2019-04-05T10:48:35.552Z,85.30
2019-04-05T10:51:04.108Z,82.90
2019-04-05T10:53:32.515Z,84.00
2019-04-05T10:56:00.942Z,84.50
2019-04-05T10:58:29.342Z,82.90
2019-04-05T11:00:57.732Z,84.50
2019-04-05T11:03:26.162Z,86.00
2019-04-05T11:05:54.560Z,85.70
2019-04-05T11:08:22.957Z,86.90
2019-04-05T11:10:51.395Z,86.40
2019-04-05T11:13:19.825Z,85.30
2019-04-05T11:15:48.482Z,86.80
2019-04-05T11:18:16.912Z,87.70
2019-04-05T11:20:48.808Z,89.10
2019-04-05T11:23:15.489Z,89.80
2019-04-05T11:25:43.900Z,89.20
2019-04-05T11:28:12.332Z,89.20
2019-04-05T11:30:43.391Z,90.00
2019-04-05T11:33:12.039Z,88.90
2019-04-05T11:35:40.528Z,88.60
2019-04-05T11:38:09.006Z,88.90
2019-04-05T11:40:38.614Z,88.20
2019-04-05T11:43:07.038Z,87.70
2019-04-05T11:45:35.780Z,86.30
2019-04-05T11:48:05.528Z,87.40
2019-04-05T11:50:35.043Z,88.90
2019-04-05T11:53:03.791Z,89.30
2019-04-05T11:55:32.204Z,89.80
2019-04-05T11:58:00.641Z,88.10
2019-04-05T12:00:42.857Z,89.00
2019-04-05T12:03:15.873Z,89.60
2019-04-05T12:05:44.284Z,89.20
2019-04-05T12:08:12.851Z,90.20
2019-04-05T12:10:41.253Z,90.60
2019-04-05T12:13:09.648Z,91.00
2019-04-05T12:15:38.357Z,91.20
2019-04-05T12:18:06.782Z,90.60
2019-04-05T12:20:48.065Z,90.80
2019-04-05T12:23:05.335Z,90.60
2019-04-05T12:25:34.513Z,90.80
2019-04-05T12:28:07.521Z,90.90
2019-04-05T12:30:33.078Z,91.30
2019-04-05T12:33:13.024Z,91.00
2019-04-05T12:35:31.609Z,91.20
2019-04-05T12:38:00.045Z,91.70
2019-04-05T12:40:28.440Z,91.80
2019-04-05T12:42:56.849Z,92.20
2019-04-05T12:45:25.271Z,92.30
2019-04-05T12:47:53.736Z,92.00
2019-04-05T12:50:22.171Z,92.00
2019-04-05T12:52:50.572Z,92.10
2019-04-05T12:55:18.967Z,92.10
2019-04-05T12:57:48.557Z,91.80
2019-04-05T13:00:18.834Z,91.80
2019-04-05T13:02:49.786Z,92.00
2019-04-05T13:05:20.409Z,91.70
2019-04-05T13:07:47.941Z,91.90
2019-04-05T13:10:16.542Z,91.60
2019-04-05T13:12:46.472Z,91.10
2019-04-05T13:15:17.121Z,91.50
2019-04-05T13:17:45.279Z,91.00
2019-04-05T13:20:13.848Z,91.30
2019-04-05T13:22:42.260Z,91.50
2019-04-05T13:25:11.526Z,91.70
2019-04-05T13:27:41.513Z,91.50
2019-04-05T13:30:10.681Z,91.40
2019-04-05T13:32:39.123Z,91.60
2019-04-05T13:35:07.866Z,92.10
2019-04-05T13:37:36.279Z,92.30
2019-04-05T13:40:06.799Z,92.40
2019-04-05T13:42:35.581Z,92.80
2019-04-05T13:45:07.231Z,92.60
2019-04-05T13:47:38.927Z,92.30
2019-04-05T13:50:10.886Z,92.20
2019-04-05T13:52:39.231Z,92.10
2019-04-05T13:55:10.457Z,92.30
2019-04-05T13:57:38.441Z,92.50
2019-04-05T14:00:09.609Z,92.60
2019-04-05T14:02:38.063Z,92.90
2019-04-05T14:05:07.115Z,92.60
2019-04-05T14:07:35.509Z,92.50
2019-04-05T14:10:10.475Z,93.10
2019-04-05T14:12:37.702Z,92.20
2019-04-05T14:15:10.708Z,92.30
2019-04-05T14:17:37.793Z,91.90
2019-04-05T14:20:08.943Z,91.60
2019-04-05T14:22:36.844Z,91.50
2019-04-05T14:25:07.785Z,91.50
2019-04-05T14:27:36.266Z,91.80
2019-04-05T14:30:06.922Z,91.60
2019-04-05T14:32:35.390Z,91.30
2019-04-05T14:35:07.778Z,90.40
2019-04-05T14:37:35.632Z,90.40
2019-04-05T14:40:09.554Z,90.90
2019-04-05T14:42:38.358Z,90.80
2019-04-05T14:45:08.029Z,91.10
2019-04-05T14:47:36.424Z,90.90
2019-04-05T14:50:07.151Z,91.40
2019-04-05T14:52:35.818Z,92.00
2019-04-05T14:55:05.627Z,92.60
2019-04-05T14:57:35.610Z,92.20
2019-04-05T15:00:07.193Z,92.50
2019-04-05T15:02:35.597Z,92.90
2019-04-05T15:05:06.468Z,93.00
2019-04-05T15:07:37.587Z,92.90
2019-04-05T15:10:05.852Z,92.90
2019-04-05T15:12:34.279Z,92.90
2019-04-05T15:15:02.709Z,92.80
2019-04-05T15:17:31.113Z,92.70
2019-04-05T15:19:59.595Z,93.40
2019-04-05T15:22:28.010Z,93.40
2019-04-05T15:24:56.413Z,93.50
2019-04-05T15:27:24.856Z,93.50
2019-04-05T15:29:55.477Z,93.60
2019-04-05T15:32:25.425Z,93.40
2019-04-05T15:34:53.720Z,93.80
2019-04-05T15:37:22.116Z,93.90
2019-04-05T15:39:50.509Z,93.90
2019-04-05T15:42:18.961Z,93.80
2019-04-05T15:44:47.366Z,93.80
2019-04-05T15:47:15.771Z,93.90
2019-04-05T15:49:44.203Z,94.20
2019-04-05T15:52:18.516Z,94.50
2019-04-05T15:54:43.276Z,94.60
2019-04-05T15:57:11.828Z,94.90
2019-04-05T15:59:40.365Z,95.00
2019-04-05T16:02:08.763Z,95.00
2019-04-05T16:04:37.196Z,95.00
2019-04-05T16:07:05.603Z,95.00
2019-04-05T16:09:34.068Z,95.00
2019-04-05T16:12:02.497Z,95.30
2019-04-05T16:14:31.169Z,95.20
2019-04-05T16:16:59.572Z,95.50
2019-04-05T16:19:27.977Z,95.80
2019-04-05T16:21:56.415Z,96.10
2019-04-05T16:24:24.820Z,95.90
2019-04-05T16:26:53.236Z,96.10
2019-04-05T16:29:21.703Z,96.50
2019-04-05T16:31:50.196Z,96.30
2019-04-05T16:34:18.593Z,96.20
2019-04-05T16:36:47.036Z,96.20
2019-04-05T16:39:17.132Z,96.50
2019-04-05T16:41:45.540Z,96.60
2019-04-05T16:44:14.148Z,96.70
2019-04-05T16:46:42.551Z,96.70
2019-04-05T16:49:10.993Z,96.80
2019-04-05T16:51:39.421Z,96.60
2019-04-05T16:54:07.833Z,96.70
2019-04-05T16:56:36.224Z,97.10
2019-04-05T16:59:04.938Z,97.30
2019-04-05T17:01:33.340Z,97.50
2019-04-05T17:04:01.925Z,97.40
2019-04-05T17:06:30.356Z,97.70
2019-04-05T17:08:58.757Z,97.70
2019-04-05T17:11:27.188Z,97.80
2019-04-05T17:13:59.431Z,98.20
2019-04-05T17:16:25.755Z,97.90
2019-04-05T17:18:54.151Z,98.00
2019-04-05T17:21:22.586Z,98.10
2019-04-05T17:23:50.989Z,98.40
2019-04-05T17:26:19.387Z,98.50
2019-04-05T17:28:47.825Z,98.50
2019-04-05T17:31:16.226Z,98.60
2019-04-05T17:33:44.634Z,98.70
2019-04-05T17:36:13.080Z,98.80
2019-04-05T17:38:41.485Z,99.00
2019-04-05T17:41:09.885Z,99.10
2019-04-05T17:43:38.314Z,99.10
2019-04-05T17:46:07.703Z,99.20
2019-04-05T17:48:36.104Z,99.10
2019-04-05T17:51:04.621Z,98.90
2019-04-05T17:53:33.088Z,99.10
2019-04-05T17:56:01.708Z,99.30
2019-04-05T17:58:32.419Z,99.50
2019-04-05T18:01:01.076Z,99.50
2019-04-05T18:03:29.480Z,99.70
2019-04-05T18:05:57.953Z,99.90
2019-04-05T18:08:26.345Z,99.90
2019-04-05T18:10:55.014Z,99.90
2019-04-05T18:13:23.446Z,99.90
2019-04-05T18:15:53.094Z,99.90
2019-04-05T18:18:21.759Z,99.90
2019-04-05T18:20:50.163Z,99.90
2019-04-05T18:23:24.866Z,99.90
2019-04-05T18:25:48.719Z,99.90
2019-04-05T18:28:17.132Z,99.90
2019-04-05T18:30:46.094Z,99.90
2019-04-05T18:33:14.537Z,99.90
2019-04-05T18:35:42.950Z,99.90
2019-04-05T18:38:11.342Z,99.90
2019-04-05T18:40:40.531Z,99.90
2019-04-05T18:43:09.108Z,99.90
2019-04-05T18:45:37.753Z,99.90
2019-04-05T18:48:06.419Z,99.90
2019-04-05T18:50:34.807Z,99.90
2019-04-05T18:53:03.291Z,99.90
2019-04-05T18:55:32.025Z,99.90
2019-04-05T18:58:00.501Z,99.90
2019-04-05T19:00:29.090Z,99.90
2019-04-05T19:02:57.873Z,99.90
2019-04-05T19:05:26.268Z,99.90
2019-04-05T19:07:54.680Z,99.90
2019-04-05T19:10:36.222Z,99.90
2019-04-05T19:12:53.495Z,99.90
2019-04-05T19:15:22.065Z,99.90
2019-04-05T19:17:50.488Z,99.90
2019-04-05T19:20:18.957Z,99.90
2019-04-05T19:22:47.376Z,99.90
2019-04-05T19:25:15.846Z,99.90
2019-04-05T19:27:44.281Z,99.90
2019-04-05T19:50:15.495Z,99.90
2019-04-05T19:52:43.895Z,99.90
2019-04-05T19:55:12.292Z,99.90
2019-04-05T19:57:40.728Z,99.90
2019-04-05T20:00:09.368Z,99.90
2019-04-05T20:02:37.858Z,99.90
2019-04-05T20:05:07.900Z,99.90
2019-04-05T20:07:39.370Z,99.90
2019-04-05T20:10:08.104Z,99.90
2019-04-05T20:12:36.538Z,99.90
2019-04-05T20:15:06.980Z,99.90
2019-04-05T20:17:35.425Z,99.90
2019-04-05T20:20:06.200Z,99.90
2019-04-05T20:22:34.596Z,99.90
2019-04-05T20:25:04.249Z,99.90
2019-04-05T20:27:32.677Z,99.90
2019-04-05T20:30:01.092Z,99.90
2019-04-05T20:32:29.486Z,99.90
2019-04-05T20:34:57.920Z,99.90
2019-04-05T20:37:26.319Z,99.90
2019-04-05T20:39:54.726Z,99.90
2019-04-05T20:42:23.156Z,99.90
2019-04-05T20:44:51.538Z,99.90
2019-04-05T20:47:19.940Z,99.90
2019-04-05T20:49:48.368Z,99.90
2019-04-05T20:52:16.778Z,99.90
2019-04-05T20:54:45.188Z,99.90
2019-04-05T20:57:13.633Z,99.90
2019-04-05T20:59:42.045Z,99.90
2019-04-05T21:02:10.444Z,99.90
2019-04-05T21:04:38.875Z,99.90
2019-04-05T21:07:07.301Z,99.90
2019-04-05T21:09:35.732Z,99.90
2019-04-05T21:12:04.204Z,99.90
2019-04-05T21:14:32.605Z,99.90
2019-04-05T21:17:01.004Z,99.90
2019-04-05T21:19:29.448Z,99.90
2019-04-05T21:21:57.883Z,99.90
2019-04-05T21:24:35.715Z,99.90
2019-04-05T21:26:56.459Z,99.90
2019-04-05T21:29:24.864Z,99.90
2019-04-05T21:31:53.266Z,99.90
2019-04-05T21:34:21.685Z,99.90
2019-04-05T21:36:50.087Z,99.90
2019-04-05T21:39:18.486Z,99.90
2019-04-05T21:41:46.904Z,99.90
2019-04-05T21:44:15.298Z,99.90
2019-04-05T21:46:43.741Z,99.90
2019-04-05T21:49:12.132Z,99.90
2019-04-05T21:51:40.527Z,99.90
2019-04-05T21:54:09.092Z,99.90
2019-04-05T21:56:37.500Z,99.90
2019-04-05T21:59:05.897Z,99.90
2019-04-05T22:01:34.487Z,99.90
2019-04-05T22:04:03.404Z,99.90
2019-04-05T22:06:33.003Z,99.90
2019-04-05T22:09:01.421Z,99.90
2019-04-05T22:11:29.827Z,99.90
2019-04-05T22:13:58.224Z,99.90
2019-04-05T22:16:26.938Z,99.90
2019-04-05T22:18:55.332Z,99.90
2019-04-05T22:21:23.784Z,99.90
2019-04-05T22:23:52.385Z,99.90
2019-04-05T22:26:20.782Z,99.90
2019-04-05T22:28:49.224Z,99.90
2019-04-05T22:31:17.919Z,99.90
2019-04-05T22:33:46.317Z,99.90
2019-04-05T22:36:14.713Z,99.90
2019-04-05T22:38:43.124Z,99.90
2019-04-05T22:41:11.540Z,99.90
2019-04-05T22:43:39.936Z,99.90
2019-04-05T22:46:08.353Z,99.90
2019-04-05T22:48:36.755Z,99.90
2019-04-05T22:51:05.178Z,99.90
2019-04-05T22:53:33.602Z,99.90
2019-04-05T22:56:02.027Z,99.90
2019-04-05T22:58:30.425Z,99.90
2019-04-05T23:00:58.879Z,99.90
2019-04-05T23:03:27.311Z,99.90
2019-04-05T23:05:55.708Z,99.90
2019-04-05T23:08:24.093Z,99.90
2019-04-05T23:10:52.516Z,99.90
2019-04-05T23:13:20.914Z,99.90
2019-04-05T23:15:49.316Z,99.90
2019-04-05T23:18:17.738Z,99.90
2019-04-05T23:20:46.137Z,99.90
2019-04-05T23:23:14.535Z,99.90
2019-04-05T23:25:43.118Z,99.90
2019-04-05T23:28:11.494Z,99.90
2019-04-05T23:30:39.892Z,99.90
2019-04-05T23:33:08.317Z,99.90
2019-04-05T23:35:36.707Z,99.90
2019-04-05T23:38:05.159Z,99.90
2019-04-05T23:40:33.579Z,99.90
2019-04-05T23:43:02.056Z,99.90
2019-04-05T23:45:30.476Z,99.90
2019-04-05T23:47:58.906Z,99.90
2019-04-05T23:50:27.300Z,99.90
2019-04-05T23:52:55.707Z,99.90
2019-04-05T23:55:32.789Z,99.90
2019-04-05T23:57:54.257Z,99.90
